^^
Lisbon, NH - Weather Station Historical Data
Daily Summary for May 19, 2021 Units:  English    Metric   Both
Daily Weekly Monthly Yearly
  High: Low: Average:
Temperature: 80.2 °F 47 °F 64.1 °F
Dew Point: 53.2 °F 30.7 °F 45.5 °F
Humidity: 98% 20% 59%
Wind Speed: 7.3mph 0mph 1.2mph
Wind Gust: 14mph - -
Wind- - ESE
Pressure: 30.31 in 30.14 in -
Precipitation: 0.00 in    
 
 
Tabular Data for May 19, 2021
Time Temperature Dew Point Pressure Wind Wind Speed Wind Gust Humidity Rainfall Rate (Hourly) solar
00:04 52.8 °F 49.4 °F 30.14 in Calm     88.2% 0.00 in 0 W/m2
00:09 52.6 °F 49.5 °F 30.14 in Calm     89% 0.00 in 0 W/m2
00:14 52.5 °F 49.4 °F 30.14 in Calm     89% 0.00 in 0 W/m2
00:19 52.4 °F 49.2 °F 30.14 in Calm     89% 0.00 in 0 W/m2
00:24 52.2 °F 49.1 °F 30.14 in Calm     89% 0.00 in 0 W/m2
00:29 52 °F 48.9 °F 30.14 in Calm     89% 0.00 in 0 W/m2
00:34 51.8 °F 48.6 °F 30.14 in Calm     89% 0.00 in 0 W/m2
00:39 51.6 °F 48.5 °F 30.14 in Calm     89% 0.00 in 0 W/m2
00:44 51.4 °F 48.5 °F 30.15 in Calm     89.7% 0.00 in 0 W/m2
00:49 51.3 °F 48.5 °F 30.15 in Calm     90% 0.00 in 0 W/m2
00:54 51 °F 48.2 °F 30.15 in Calm     90% 0.00 in 0 W/m2
00:59 50.8 °F 48 °F 30.15 in Calm     90% 0.00 in 0 W/m2
01:04 50.6 °F 48 °F 30.15 in Calm     90.8% 0.00 in 0 W/m2
01:09 50.4 °F 47.9 °F 30.15 in Calm     91% 0.00 in 0 W/m2
01:14 50.2 °F 47.7 °F 30.15 in Calm     91% 0.00 in 0 W/m2
01:19 50 °F 47.5 °F 30.15 in Calm     91% 0.00 in 0 W/m2
01:24 49.8 °F 47.4 °F 30.15 in Calm     91.4% 0.00 in 0 W/m2
01:29 49.5 °F 47.3 °F 30.16 in Calm     92% 0.00 in 0 W/m2
01:34 49.4 °F 47.2 °F 30.16 in Calm     92% 0.00 in 0 W/m2
01:39 49.2 °F 47.2 °F 30.16 in Calm     92.4% 0.00 in 0 W/m2
01:44 49 °F 47.1 °F 30.16 in Calm     93% 0.00 in 0 W/m2
01:49 48.9 °F 47 °F 30.16 in Calm     93% 0.00 in 0 W/m2
01:54 48.9 °F 47.1 °F 30.16 in Calm     93.6% 0.00 in 0 W/m2
01:59 48.7 °F 47 °F 30.17 in Calm   1 mph 94% 0.00 in 0 W/m2
02:04 48.6 °F 47 °F 30.17 in Calm   1 mph 94% 0.00 in 0 W/m2
02:09 48.4 °F 46.9 °F 30.17 in Calm   1 mph 94.7% 0.00 in 0 W/m2
02:14 48.3 °F 46.9 °F 30.17 in Calm     95% 0.00 in 0 W/m2
02:19 48.2 °F 46.9 °F 30.17 in Calm     95% 0.00 in 0 W/m2
02:24 48.1 °F 46.7 °F 30.17 in Calm     95% 0.00 in 0 W/m2
02:29 47.9 °F 46.7 °F 30.17 in Calm     95.5% 0.00 in 0 W/m2
02:34 47.8 °F 46.7 °F 30.17 in Calm     96% 0.00 in 0 W/m2
02:39 47.5 °F 46.4 °F 30.17 in Calm     96% 0.00 in 0 W/m2
02:44 47.3 °F 46.2 °F 30.17 in Calm     96% 0.00 in 0 W/m2
02:49 47.1 °F 46 °F 30.17 in Calm     96% 0.00 in 0 W/m2
02:54 47 °F 45.9 °F 30.17 in Calm     96% 0.00 in 0 W/m2
02:59 47 °F 46.2 °F 30.17 in Calm     97% 0.00 in 0 W/m2
03:04 47 °F 46.2 °F 30.17 in Calm     97% 0.00 in 0 W/m2
03:09 47 °F 46.2 °F 30.17 in Calm     97% 0.00 in 0 W/m2
03:14 47 °F 46.2 °F 30.18 in Calm     97% 0.00 in 0 W/m2
03:19 47.1 °F 46.3 °F 30.18 in Calm     97% 0.00 in 0 W/m2
03:24 47.2 °F 46.6 °F 30.18 in Calm     97.8% 0.00 in 0 W/m2
03:29 47.3 °F 46.8 °F 30.18 in Calm     98% 0.00 in 0 W/m2
03:34 47.3 °F 46.8 °F 30.18 in Calm     98% 0.00 in 0 W/m2
03:39 47.3 °F 46.8 °F 30.18 in Calm     98% 0.00 in 0 W/m2
03:44 47.4 °F 46.9 °F 30.19 in Calm     98% 0.00 in 0 W/m2
03:49 47.4 °F 46.9 °F 30.19 in Calm     98% 0.00 in 0 W/m2
03:54 47.4 °F 46.9 °F 30.19 in Calm     98% 0.00 in 0 W/m2
03:59 47.4 °F 46.9 °F 30.19 in Calm     98% 0.00 in 0 W/m2
04:04 47.4 °F 46.9 °F 30.19 in Calm   1 mph 98% 0.00 in 0 W/m2
04:09 47.5 °F 47 °F 30.19 in NW 0.1 mph 2 mph 98% 0.00 in 0 W/m2
04:14 47.6 °F 47.1 °F 30.19 in Calm   2 mph 98% 0.00 in 0 W/m2
04:19 47.6 °F 47 °F 30.19 in Calm     98% 0.00 in 0 W/m2
04:24 47.6 °F 47 °F 30.19 in Calm     98% 0.00 in 0 W/m2
04:29 47.6 °F 47 °F 30.20 in Calm     98% 0.00 in 0 W/m2
04:34 47.6 °F 47.1 °F 30.20 in Calm     98% 0.00 in 0 W/m2
04:39 47.6 °F 47.1 °F 30.20 in Calm     98% 0.00 in 0 W/m2
04:44 47.6 °F 47.1 °F 30.20 in Calm     98% 0.00 in 0 W/m2
04:49 47.7 °F 47.1 °F 30.20 in Calm     98% 0.00 in 0 W/m2
04:54 47.7 °F 47.2 °F 30.20 in Calm     98% 0.00 in 0 W/m2
04:59 47.7 °F 47.2 °F 30.20 in Calm     98% 0.00 in 0 W/m2
05:04 47.7 °F 47.2 °F 30.20 in Calm     98% 0.00 in 0 W/m2
05:09 47.8 °F 47.3 °F 30.20 in Calm     98% 0.00 in 0 W/m2
05:14 47.9 °F 47.4 °F 30.21 in Calm   1 mph 98% 0.00 in 0 W/m2
05:19 47.9 °F 47.4 °F 30.21 in NW 0.2 mph 1 mph 98% 0.00 in 5 W/m2
05:24 48 °F 47.5 °F 30.21 in NNE 0.2 mph 2 mph 98% 0.00 in 5 W/m2
05:29 48 °F 47.5 °F 30.22 in NNE 0.8 mph 2 mph 98% 0.00 in 5 W/m2
05:34 48.1 °F 47.6 °F 30.22 in NE 0.4 mph 2 mph 98% 0.00 in 11 W/m2
05:39 48.1 °F 47.4 °F 30.22 in Calm     97.5% 0.00 in 11 W/m2
05:44 48.1 °F 47.4 °F 30.22 in Calm     97.5% 0.00 in 14 W/m2
05:49 48.3 °F 47.5 °F 30.22 in Calm     97% 0.00 in 14 W/m2
05:54 48.3 °F 47.5 °F 30.22 in Calm     97% 0.00 in 21 W/m2
05:59 48.3 °F 47.5 °F 30.22 in Calm     97% 0.00 in 26 W/m2
06:04 48.3 °F 47.5 °F 30.22 in Calm     97% 0.00 in 35 W/m2
06:09 48.4 °F 47.6 °F 30.22 in Calm     97% 0.00 in 35 W/m2
06:14 48.9 °F 48.3 °F 30.23 in Calm     98% 0.00 in 113 W/m2
06:19 49.5 °F 49 °F 30.23 in Calm     98% 0.00 in 134 W/m2
06:24 50.1 °F 49.2 °F 30.23 in Calm   1 mph 96.7% 0.00 in 164 W/m2
06:29 50.5 °F 49.2 °F 30.25 in ENE 0.6 mph 2 mph 95.5% 0.00 in 190 W/m2
06:34 50.6 °F 49 °F 30.25 in ENE 0.2 mph 2 mph 94.1% 0.00 in 194 W/m2
06:39 50.8 °F 48.9 °F 30.25 in SSW 0.6 mph 2 mph 93.2% 0.00 in 88 W/m2
06:44 50.9 °F 48.9 °F 30.25 in SW 1.5 mph 4 mph 92.8% 0.00 in 208 W/m2
06:49 51 °F 48.9 °F 30.25 in SSW 1.4 mph 3 mph 92.4% 0.00 in 208 W/m2
06:54 51.5 °F 49.2 °F 30.25 in SW 0.7 mph 2 mph 92% 0.00 in 225 W/m2
06:59 52.3 °F 49.9 °F 30.25 in Calm   2 mph 91.7% 0.00 in 243 W/m2
07:04 53 °F 50 °F 30.25 in SW 0.8 mph 5 mph 89.6% 0.00 in 264 W/m2
07:09 53.5 °F 49.8 °F 30.25 in SSW 0.2 mph 2 mph 87.3% 0.00 in 234 W/m2
07:14 53.8 °F 49.7 °F 30.26 in SW 0.5 mph 2 mph 86% 0.00 in 287 W/m2
07:19 54.2 °F 49.9 °F 30.26 in SSW 0.9 mph 5 mph 85.4% 0.00 in 294 W/m2
07:24 54.9 °F 50 °F 30.26 in SW 0.7 mph 2 mph 83.4% 0.00 in 308 W/m2
07:29 55.3 °F 49.6 °F 30.26 in SSW 1 mph 2 mph 81.3% 0.00 in 313 W/m2
07:34 55.5 °F 49.5 °F 30.26 in SSW 1.5 mph 5 mph 80.1% 0.00 in 336 W/m2
07:39 56 °F 49.4 °F 30.26 in SSW 1.2 mph 2 mph 78.5% 0.00 in 354 W/m2
07:44 56.3 °F 49.5 °F 30.26 in SSE 1 mph 3 mph 77.8% 0.00 in 366 W/m2
07:49 56.9 °F 49.7 °F 30.26 in SE 0.5 mph 3 mph 76.8% 0.00 in 384 W/m2
07:54 57.4 °F 49.7 °F 30.26 in South 1.3 mph 3 mph 75.3% 0.00 in 398 W/m2
07:59 57.6 °F 49.5 °F 30.26 in South 1.1 mph 3 mph 74.3% 0.00 in 406 W/m2
08:04 57.5 °F 49.3 °F 30.26 in South 0.3 mph 2 mph 74% 0.00 in 294 W/m2
08:09 57.6 °F 49.4 °F 30.26 in South 0.9 mph 2 mph 74% 0.00 in 318 W/m2
08:14 58.1 °F 49.6 °F 30.27 in South 1.3 mph 3 mph 73.3% 0.00 in 600 W/m2
08:19 58.4 °F 49.4 °F 30.27 in South 1.1 mph 3 mph 71.8% 0.00 in 260 W/m2
08:24 59 °F 49.4 °F 30.27 in South 1.1 mph 3 mph 70.4% 0.00 in 521 W/m2
08:29 59.6 °F 49.4 °F 30.27 in South 1 mph 3 mph 68.9% 0.00 in 493 W/m2
08:34 60.2 °F 49.4 °F 30.26 in SSW 1.2 mph 4 mph 67.5% 0.00 in 507 W/m2
08:39 60.6 °F 48.8 °F 30.26 in South 0.4 mph 2 mph 65% 0.00 in 523 W/m2
08:44 61.8 °F 48.7 °F 30.26 in ESE 0.4 mph 2 mph 62.2% 0.00 in 537 W/m2
08:49 62.7 °F 47.7 °F 30.26 in SSE 1 mph 2 mph 57.9% 0.00 in 552 W/m2
08:54 63.4 °F 46.6 °F 30.26 in ENE 1 mph 3 mph 54.2% 0.00 in 570 W/m2
08:59 64.2 °F 44.4 °F 30.26 in ENE 0.9 mph 3 mph 48.6% 0.00 in 595 W/m2
09:04 64.9 °F 44.3 °F 30.26 in NE 1.1 mph 3 mph 47.2% 0.00 in 612 W/m2
09:09 65.6 °F 44.4 °F 30.26 in ENE 1.4 mph 3 mph 46.1% 0.00 in 628 W/m2
09:14 65.9 °F 43.8 °F 30.26 in ENE 2 mph 5 mph 44.8% 0.00 in 630 W/m2
09:19 66.4 °F 42.5 °F 30.26 in East 0.9 mph 5 mph 41.7% 0.00 in 644 W/m2
09:24 66.6 °F 42.4 °F 30.26 in ENE 2.3 mph 5 mph 41.5% 0.00 in 648 W/m2
09:29 67.2 °F 42.6 °F 30.26 in ENE 2.6 mph 7 mph 40.9% 0.00 in 658 W/m2
09:34 67.4 °F 41.1 °F 30.26 in East 0.9 mph 3 mph 38.2% 0.00 in 693 W/m2
09:39 67.8 °F 40.6 °F 30.26 in ESE 0.4 mph 1 mph 36.9% 0.00 in 688 W/m2
09:44 68.4 °F 39.9 °F 30.27 in SE 0.6 mph 2 mph 35.3% 0.00 in 711 W/m2
09:49 68.8 °F 39.9 °F 30.27 in SE 0.8 mph 2 mph 34.8% 0.00 in 716 W/m2
09:54 69.6 °F 38.4 °F 30.27 in ENE 1.7 mph 5 mph 31.9% 0.00 in 737 W/m2
09:59 70.8 °F 33.9 °F 30.27 in ENE 1.6 mph 6 mph 25.6% 0.00 in 714 W/m2
10:04 71.2 °F 31.7 °F 30.26 in ENE 4.5 mph 11 mph 23.2% 0.00 in 639 W/m2
10:09 71.3 °F 33.4 °F 30.26 in ENE 4.1 mph 8 mph 24.8% 0.00 in 679 W/m2
10:14 71.9 °F 32.9 °F 30.26 in ENE 4.3 mph 8 mph 23.8% 0.00 in 760 W/m2
10:19 72.7 °F 35 °F 30.26 in NE 1.5 mph 8 mph 25.1% 0.00 in 778 W/m2
10:24 73.2 °F 32 °F 30.26 in NE 3.1 mph 8 mph 21.9% 0.00 in 799 W/m2
10:29 73.5 °F 32.1 °F 30.26 in NNW 1.6 mph 6 mph 21.8% 0.00 in 788 W/m2
10:34 74 °F 32.8 °F 30.26 in NNE 1.3 mph 3 mph 22% 0.00 in 801 W/m2
10:39 74.5 °F 30.9 °F 30.26 in NE 2.6 mph 6 mph 20% 0.00 in 795 W/m2
10:44 74.4 °F 30.7 °F 30.26 in ENE 1.9 mph 6 mph 20% 0.00 in 802 W/m2
10:49 74.5 °F 32.3 °F 30.26 in ENE 4.1 mph 8 mph 21.3% 0.00 in 830 W/m2
10:54 74.6 °F 32.5 °F 30.26 in NE 4 mph 9 mph 21.4% 0.00 in 841 W/m2
10:59 74.8 °F 32.7 °F 30.26 in NE 4.9 mph 13 mph 21.4% 0.00 in 852 W/m2
11:04 74.8 °F 33.8 °F 30.26 in ENE 4.9 mph 12 mph 22.3% 0.00 in 857 W/m2
11:09 75.2 °F 35.3 °F 30.26 in NE 3.3 mph 12 mph 23.4% 0.00 in 862 W/m2
11:14 75.7 °F 36.8 °F 30.26 in NE 2 mph 8 mph 24.4% 0.00 in 869 W/m2
11:19 76.1 °F 35.9 °F 30.26 in NNE 3 mph 10 mph 23.3% 0.00 in 889 W/m2
11:24 75.9 °F 35.3 °F 30.26 in ENE 3 mph 10 mph 22.9% 0.00 in 904 W/m2
11:29 75.8 °F 35.8 °F 30.26 in NE 2.9 mph 13 mph 23.5% 0.00 in 920 W/m2
11:34 76.2 °F 35.8 °F 30.26 in ENE 5.6 mph 13 mph 23% 0.00 in 920 W/m2
11:39 76.2 °F 35.6 °F 30.26 in ENE 7.3 mph 14 mph 23% 0.00 in 945 W/m2
11:44 75.9 °F 35.1 °F 30.26 in ENE 6.7 mph 13 mph 22.6% 0.00 in 996 W/m2
11:49 76 °F 36.1 °F 30.25 in ENE 5.2 mph 13 mph 23.5% 0.00 in 996 W/m2
11:54 75.8 °F 36.7 °F 30.25 in NE 3.5 mph 11 mph 24.3% 0.00 in 929 W/m2
11:59 76.3 °F 35.7 °F 30.25 in NW 1.4 mph 7 mph 22.9% 0.00 in 987 W/m2
12:04 76.3 °F 36.9 °F 30.25 in ENE 4.6 mph 11 mph 24% 0.00 in 938 W/m2
12:09 76.8 °F 37.5 °F 30.25 in NE 4.8 mph 11 mph 24.2% 0.00 in 938 W/m2
12:14 77.4 °F 37.5 °F 30.25 in NE 2.9 mph 8 mph 23.7% 0.00 in 931 W/m2
12:19 78.1 °F 38 °F 30.25 in NE 2.8 mph 9 mph 23.6% 0.00 in 971 W/m2
12:24 78.3 °F 37.7 °F 30.25 in ENE 3.8 mph 10 mph 23.2% 0.00 in 1061 W/m2
12:29 78.1 °F 36.8 °F 30.25 in ENE 5.5 mph 11 mph 22.5% 0.00 in 1084 W/m2
12:34 77.9 °F 38.4 °F 30.24 in NE 2.7 mph 11 mph 24.2% 0.00 in 1015 W/m2
12:39 78 °F 37.7 °F 30.24 in ENE 2.7 mph 7 mph 23.4% 0.00 in 1049 W/m2
12:44 78.3 °F 37.1 °F 30.24 in North 1.4 mph 6 mph 22.6% 0.00 in 1061 W/m2
12:49 78.5 °F 37.1 °F 30.24 in ENE 5.4 mph 12 mph 22.5% 0.00 in 1061 W/m2
12:54 78.6 °F 37.8 °F 30.24 in NE 1.1 mph 8 mph 23.1% 0.00 in 970 W/m2
12:59 78.7 °F 37.2 °F 30.24 in ENE 3 mph 8 mph 22.5% 0.00 in 987 W/m2
13:04 78.4 °F 37.1 °F 30.24 in East 2 mph 8 mph 22.5% 0.00 in 962 W/m2
13:09 77.9 °F 39.3 °F 30.24 in ENE 4.6 mph 8 mph 25% 0.00 in 959 W/m2
13:14 78.1 °F 39 °F 30.24 in East 3.6 mph 8 mph 24.6% 0.00 in 962 W/m2
13:19 77.5 °F 38.7 °F 30.23 in SSE 4.1 mph 8 mph 24.8% 0.00 in 964 W/m2
13:24 78.1 °F 40.7 °F 30.23 in ENE 5.5 mph 14 mph 26.3% 0.00 in 985 W/m2
13:29 78.7 °F 40.4 °F 30.23 in ENE 1.9 mph 9 mph 25.5% 0.00 in 941 W/m2
13:34 78.8 °F 41.7 °F 30.23 in ENE 6.3 mph 10 mph 26.7% 0.00 in 917 W/m2
13:39 79 °F 42.1 °F 30.23 in ENE 5.6 mph 12 mph 26.9% 0.00 in 897 W/m2
13:44 78.7 °F 41.1 °F 30.23 in ENE 5.6 mph 11 mph 26.1% 0.00 in 894 W/m2
13:49 78.3 °F 42.6 °F 30.22 in East 4 mph 10 mph 28% 0.00 in 892 W/m2
13:54 78.3 °F 42.1 °F 30.22 in ENE 4.3 mph 8 mph 27.5% 0.00 in 897 W/m2
13:59 78.9 °F 42.5 °F 30.22 in NE 2.6 mph 8 mph 27.4% 0.00 in 950 W/m2
14:04 79.6 °F 42.9 °F 30.22 in NE 3.4 mph 13 mph 27.2% 0.00 in 999 W/m2
14:09 80.1 °F 43 °F 30.22 in NE 4.9 mph 13 mph 26.9% 0.00 in 994 W/m2
14:14 80.2 °F 42.6 °F 30.22 in ENE 4.4 mph 14 mph 26.4% 0.00 in 915 W/m2
14:19 79.9 °F 42.9 °F 30.22 in NE 3.5 mph 14 mph 27% 0.00 in 871 W/m2
14:24 79.8 °F 43.3 °F 30.22 in ENE 2.5 mph 7 mph 27.5% 0.00 in 787 W/m2
14:29 79.6 °F 43.2 °F 30.22 in NE 2.1 mph 5 mph 27.5% 0.00 in 794 W/m2
14:34 79.8 °F 43.7 °F 30.21 in NE 2.8 mph 7 mph 27.8% 0.00 in 794 W/m2
14:39 80.1 °F 43.6 °F 30.21 in ENE 6.2 mph 11 mph 27.5% 0.00 in 765 W/m2
14:44 80 °F 43.4 °F 30.22 in NNE 1 mph 10 mph 27.3% 0.00 in 259 W/m2
14:49 79.7 °F 43.4 °F 30.22 in NE 1.5 mph 6 mph 27.7% 0.00 in 426 W/m2
14:54 79.6 °F 44.2 °F 30.22 in ENE 1.7 mph 6 mph 28.6% 0.00 in 426 W/m2
14:59 79.3 °F 43.3 °F 30.22 in ENE 1.4 mph 6 mph 27.9% 0.00 in 350 W/m2
15:04 79.1 °F 43 °F 30.21 in ENE 1.5 mph 6 mph 27.7% 0.00 in 294 W/m2
15:09 78.7 °F 43.8 °F 30.21 in NNE 2.3 mph 7 mph 29% 0.00 in 222 W/m2
15:14 78.5 °F 43.7 °F 30.22 in NE 3.4 mph 7 mph 29% 0.00 in 239 W/m2
15:19 78.3 °F 43.8 °F 30.22 in ENE 2.6 mph 7 mph 29.4% 0.00 in 239 W/m2
15:24 78.3 °F 42.8 °F 30.22 in ENE 3.4 mph 8 mph 28.2% 0.00 in 232 W/m2
15:29 78.3 °F 42.9 °F 30.22 in North 1.6 mph 5 mph 28.4% 0.00 in 252 W/m2
15:34 78.1 °F 43.1 °F 30.22 in NE 3.2 mph 7 mph 28.8% 0.00 in 227 W/m2
15:39 78 °F 42.4 °F 30.22 in ENE 1.7 mph 5 mph 28.2% 0.00 in 227 W/m2
15:44 78.1 °F 43.3 °F 30.22 in ENE 1.5 mph 3 mph 29% 0.00 in 269 W/m2
15:49 78.3 °F 43 °F 30.21 in NE 1 mph 5 mph 28.6% 0.00 in 334 W/m2
15:54 78.5 °F 42.7 °F 30.21 in NE 4.6 mph 11 mph 28% 0.00 in 278 W/m2
15:59 78.5 °F 42.4 °F 30.21 in NE 4.6 mph 11 mph 27.6% 0.00 in 225 W/m2
16:04 78.4 °F 42.6 °F 30.21 in ENE 2.4 mph 7 mph 27.9% 0.00 in 324 W/m2
16:09 78.5 °F 42.3 °F 30.21 in NE 3.6 mph 10 mph 27.6% 0.00 in 311 W/m2
16:14 78.4 °F 43.1 °F 30.22 in NE 1.8 mph 5 mph 28.5% 0.00 in 250 W/m2
16:19 78.4 °F 42.8 °F 30.22 in ENE 0.8 mph 6 mph 28.2% 0.00 in 364 W/m2
16:24 78.4 °F 42.6 °F 30.22 in ENE 1.8 mph 6 mph 28% 0.00 in 364 W/m2
16:29 78.5 °F 42.4 °F 30.22 in NE 1.7 mph 8 mph 27.7% 0.00 in 364 W/m2
16:34 78.5 °F 43 °F 30.22 in ENE 1 mph 3 mph 28.3% 0.00 in 276 W/m2
16:39 78.4 °F 42.4 °F 30.22 in NNE 1.3 mph 4 mph 27.9% 0.00 in 190 W/m2
16:44 78.3 °F 42.9 °F 30.22 in NNE 1 mph 3 mph 28.3% 0.00 in 190 W/m2
16:49 78.4 °F 43.5 °F 30.22 in ENE 2 mph 5 mph 29% 0.00 in 183 W/m2
16:54 78.3 °F 43.9 °F 30.22 in NE 1.1 mph 7 mph 29.5% 0.00 in 245 W/m2
16:59 78.3 °F 44 °F 30.22 in NE 1.8 mph 7 mph 29.6% 0.00 in 183 W/m2
17:04 78.3 °F 43.2 °F 30.22 in NE 2.5 mph 8 mph 28.7% 0.00 in 304 W/m2
17:09 78.3 °F 43.4 °F 30.22 in ENE 1.9 mph 7 mph 28.9% 0.00 in 223 W/m2
17:14 78.3 °F 43.3 °F 30.22 in NE 2.4 mph 6 mph 28.9% 0.00 in 102 W/m2
17:19 78.1 °F 44.8 °F 30.22 in SW 0.7 mph 6 mph 30.7% 0.00 in 102 W/m2
17:24 78 °F 44.1 °F 30.22 in NNE 1.7 mph 6 mph 30% 0.00 in 116 W/m2
17:29 78 °F 43.9 °F 30.23 in NE 3.8 mph 8 mph 29.9% 0.00 in 153 W/m2
17:34 77.9 °F 44.6 °F 30.23 in NE 3.5 mph 8 mph 30.7% 0.00 in 153 W/m2
17:39 77.9 °F 45 °F 30.23 in ENE 2.9 mph 9 mph 31.2% 0.00 in 153 W/m2
17:44 77.8 °F 44.8 °F 30.23 in NE 1 mph 7 mph 31% 0.00 in 116 W/m2
17:49 77.9 °F 44.4 °F 30.23 in NE 0.9 mph 4 mph 30.5% 0.00 in 100 W/m2
17:54 77.9 °F 43.6 °F 30.23 in ENE 2.3 mph 8 mph 29.6% 0.00 in 86 W/m2
17:59 77.9 °F 44.2 °F 30.23 in NNE 1.2 mph 6 mph 30.3% 0.00 in 72 W/m2
18:04 77.7 °F 44.3 °F 30.23 in ENE 1.5 mph 4 mph 30.5% 0.00 in 79 W/m2
18:09 77.5 °F 45.2 °F 30.23 in NE 0.9 mph 3 mph 31.8% 0.00 in 76 W/m2
18:14 77.4 °F 45.6 °F 30.23 in NE 1.7 mph 6 mph 32.4% 0.00 in 74 W/m2
18:19 77.2 °F 45.6 °F 30.23 in ENE 0.9 mph 6 mph 32.7% 0.00 in 79 W/m2
18:24 77.1 °F 45.4 °F 30.23 in ENE 1.4 mph 6 mph 32.5% 0.00 in 69 W/m2
18:29 76.9 °F 46 °F 30.23 in ENE 1.5 mph 6 mph 33.5% 0.00 in 74 W/m2
18:34 76.6 °F 46.2 °F 30.23 in NE 1.5 mph 4 mph 34% 0.00 in 70 W/m2
18:39 76.4 °F 45.7 °F 30.23 in NE 0.7 mph 3 mph 33.7% 0.00 in 74 W/m2
18:44 76.3 °F 46.3 °F 30.24 in ENE 1.3 mph 6 mph 34.6% 0.00 in 69 W/m2
18:49 76.1 °F 46.6 °F 30.24 in ENE 0.6 mph 6 mph 35.1% 0.00 in 56 W/m2
18:54 75.9 °F 46.3 °F 30.24 in ENE 0.3 mph 3 mph 35% 0.00 in 49 W/m2
18:59 75.7 °F 47.6 °F 30.24 in NNE 1 mph 2 mph 37% 0.00 in 49 W/m2
19:04 75.2 °F 47.2 °F 30.24 in ENE 1.3 mph 5 mph 37% 0.00 in 48 W/m2
19:09 74.9 °F 46.9 °F 30.24 in NE 1.1 mph 5 mph 37% 0.00 in 49 W/m2
19:14 74.7 °F 46.4 °F 30.24 in NE 1.1 mph 4 mph 36.6% 0.00 in 44 W/m2
19:19 74.5 °F 47.5 °F 30.24 in NE 0.4 mph 2 mph 38.3% 0.00 in 37 W/m2
19:24 74.3 °F 49.1 °F 30.24 in North 0.7 mph 2 mph 41.1% 0.00 in 33 W/m2
19:29 73.6 °F 50.5 °F 30.24 in North 0.3 mph 2 mph 44.1% 0.00 in 28 W/m2
19:34 72.9 °F 50.5 °F 30.24 in North 0.4 mph 2 mph 45.3% 0.00 in 25 W/m2
19:39 72.3 °F 51.1 °F 30.24 in North 0.1 mph 1 mph 47.3% 0.00 in 21 W/m2
19:44 71.6 °F 50.9 °F 30.24 in North 0.1 mph 1 mph 48.1% 0.00 in 19 W/m2
19:49 71 °F 51.5 °F 30.24 in North 0.1 mph 1 mph 50.1% 0.00 in 16 W/m2
19:54 70.5 °F 52.2 °F 30.24 in North 0.1 mph 1 mph 52.3% 0.00 in 14 W/m2
19:59 69.9 °F 52.5 °F 30.25 in North 0.1 mph 1 mph 54% 0.00 in 11 W/m2
20:04 69.2 °F 52.7 °F 30.25 in North 0.3 mph 1 mph 55.7% 0.00 in 7 W/m2
20:09 68.7 °F 53.1 °F 30.25 in Calm   1 mph 57.5% 0.00 in 5 W/m2
20:14 68.2 °F 53.2 °F 30.25 in Calm     58.8% 0.00 in 5 W/m2
20:19 67.7 °F 52.8 °F 30.25 in Calm   1 mph 58.8% 0.00 in 0 W/m2
20:24 67.2 °F 52.9 °F 30.25 in Calm     60% 0.00 in 0 W/m2
20:29 66.8 °F 53.1 °F 30.26 in Calm     61.3% 0.00 in 0 W/m2
20:34 66.4 °F 53 °F 30.26 in Calm     62% 0.00 in 0 W/m2
20:39 65.9 °F 53 °F 30.26 in Calm     63% 0.00 in 0 W/m2
20:44 65.4 °F 53 °F 30.26 in Calm     64% 0.00 in 0 W/m2
20:49 64.9 °F 52.5 °F 30.26 in Calm     64.3% 0.00 in 0 W/m2
20:54 64.4 °F 52.4 °F 30.26 in Calm     65% 0.00 in 0 W/m2
20:59 63.9 °F 52.5 °F 30.27 in Calm     66.3% 0.00 in 0 W/m2
21:04 63.5 °F 52.4 °F 30.27 in North 0.2 mph 1 mph 67% 0.00 in 0 W/m2
21:09 63.1 °F 52.1 °F 30.27 in Calm   1 mph 67.5% 0.00 in 0 W/m2
21:14 62.7 °F 52.1 °F 30.27 in Calm     68.3% 0.00 in 0 W/m2
21:19 62.4 °F 52.1 °F 30.27 in Calm     69% 0.00 in 0 W/m2
21:24 62.1 °F 51.8 °F 30.27 in North 0.6 mph 2 mph 69% 0.00 in 0 W/m2
21:29 61.7 °F 51.4 °F 30.28 in Calm   1 mph 69% 0.00 in 0 W/m2
21:34 61.3 °F 51.2 °F 30.28 in Calm     69.5% 0.00 in 0 W/m2
21:39 61.1 °F 51.6 °F 30.28 in Calm     71% 0.00 in 0 W/m2
21:44 60.8 °F 51.4 °F 30.28 in North 0.5 mph 1 mph 71% 0.00 in 0 W/m2
21:49 60.4 °F 50.8 °F 30.28 in North 0.2 mph 1 mph 70.4% 0.00 in 0 W/m2
21:54 60.1 °F 50.5 °F 30.28 in Calm     70.6% 0.00 in 0 W/m2
21:59 59.9 °F 50.9 °F 30.29 in Calm     72% 0.00 in 0 W/m2
22:04 59.7 °F 50.7 °F 30.29 in Calm     72% 0.00 in 0 W/m2
22:09 59.5 °F 50.4 °F 30.29 in Calm     72% 0.00 in 0 W/m2
22:14 59.2 °F 50.2 °F 30.29 in Calm     72% 0.00 in 0 W/m2
22:19 58.9 °F 50.3 °F 30.29 in Calm     73% 0.00 in 0 W/m2
22:24 58.7 °F 50.1 °F 30.29 in Calm     73.2% 0.00 in 0 W/m2
22:29 58.4 °F 50.2 °F 30.29 in Calm     74% 0.00 in 0 W/m2
22:30 58.3 °F 50.1 °F 30.29 in Calm     74% 0.00 in 0 W/m2
22:39 58.1 °F 50.4 °F 30.29 in Calm     75.5% 0.00 in 0 W/m2
22:44 58 °F 50.5 °F 30.29 in Calm     76.1% 0.00 in 0 W/m2
22:49 57.8 °F 50.6 °F 30.29 in Calm     77% 0.00 in 0 W/m2
22:54 57.5 °F 50.2 °F 30.29 in Calm     76.6% 0.00 in 0 W/m2
22:59 57.2 °F 50.2 °F 30.30 in Calm     77.4% 0.00 in 0 W/m2
23:04 57 °F 50.2 °F 30.30 in Calm     78% 0.00 in 0 W/m2
23:09 56.8 °F 50 °F 30.30 in Calm     78% 0.00 in 0 W/m2
23:14 56.6 °F 50.1 °F 30.30 in Calm     78.8% 0.00 in 0 W/m2
23:19 56.4 °F 50.1 °F 30.30 in Calm     79.3% 0.00 in 0 W/m2
23:24 56.1 °F 49.9 °F 30.30 in Calm     79.5% 0.00 in 0 W/m2
23:29 56 °F 50.1 °F 30.30 in Calm     80.5% 0.00 in 0 W/m2
23:34 55.9 °F 50.3 °F 30.30 in Calm     81.3% 0.00 in 0 W/m2
23:39 55.6 °F 49.9 °F 30.30 in Calm   1 mph 81% 0.00 in 0 W/m2
23:44 55.2 °F 49.5 °F 30.31 in North 0.4 mph 1 mph 81% 0.00 in 0 W/m2
23:49 55 °F 49.5 °F 30.31 in Calm     81.7% 0.00 in 0 W/m2
23:54 54.8 °F 49.6 °F 30.31 in North 0.1 mph 1 mph 82.5% 0.00 in 0 W/m2
23:59 54.7 °F 50 °F 30.31 in North 0.1 mph 1 mph 83.9% 0.00 in 0 W/m2
Lisbon, New Hampshire, USA
Compliments of Weather Underground - 4 mb